createdAt,value
2022-12-11T00:00:10.419Z,-2.38
2022-12-11T00:01:10.457Z,-2.37
2022-12-11T00:02:10.519Z,-2.38
2022-12-11T00:03:15.593Z,-2.37
2022-12-11T00:04:10.576Z,-2.38
2022-12-11T00:05:10.856Z,-2.38
2022-12-11T00:06:10.622Z,-2.38
2022-12-11T00:07:10.657Z,-2.37
2022-12-11T00:08:10.763Z,-2.36
2022-12-11T00:09:10.730Z,-2.36
2022-12-11T00:10:10.760Z,-2.37
2022-12-11T00:11:10.797Z,-2.36
2022-12-11T00:12:10.828Z,-2.35
2022-12-11T00:13:10.858Z,-2.36
2022-12-11T00:14:10.888Z,-2.36
2022-12-11T00:15:11.156Z,-2.35
2022-12-11T00:16:11.015Z,-2.35
2022-12-11T00:17:11.011Z,-2.35
2022-12-11T00:18:11.013Z,-2.34
2022-12-11T00:19:11.048Z,-2.34
2022-12-11T00:20:11.078Z,-2.34
2022-12-11T00:21:11.145Z,-2.34
2022-12-11T00:22:11.143Z,-2.34
2022-12-11T00:23:11.171Z,-2.34
2022-12-11T00:24:11.201Z,-2.34
2022-12-11T00:25:11.503Z,-2.34
2022-12-11T00:26:11.275Z,-2.33
2022-12-11T00:27:11.315Z,-2.33
2022-12-11T00:28:11.346Z,-2.33
2022-12-11T00:29:11.370Z,-2.33
2022-12-11T00:30:11.405Z,-2.33
2022-12-11T00:31:11.435Z,-2.33
2022-12-11T00:32:11.543Z,-2.33
2022-12-11T00:33:11.501Z,-2.33
2022-12-11T00:34:11.550Z,-2.33
2022-12-11T00:35:11.872Z,-2.33
2022-12-11T00:36:11.603Z,-2.33
2022-12-11T00:37:11.700Z,-2.33
2022-12-11T00:38:11.658Z,-2.33
2022-12-11T00:39:11.710Z,-2.34
2022-12-11T00:40:11.718Z,-2.33
2022-12-11T00:41:11.757Z,-2.33
2022-12-11T00:42:11.795Z,-2.32
2022-12-11T00:43:11.829Z,-2.32
2022-12-11T00:44:11.862Z,-2.3
2022-12-11T00:45:12.162Z,-2.3
2022-12-11T00:46:11.963Z,-2.25
2022-12-11T00:47:11.954Z,-2.27
2022-12-11T00:48:11.993Z,-2.26
2022-12-11T00:49:12.026Z,-2.26
2022-12-11T00:50:12.067Z,-2.26
2022-12-11T00:51:12.094Z,-2.25
2022-12-11T00:52:12.138Z,-2.25
2022-12-11T00:53:12.167Z,-2.31
2022-12-11T00:54:12.208Z,-2.31
2022-12-11T00:55:12.617Z,-2.29
2022-12-11T00:56:12.251Z,-2.29
2022-12-11T00:57:12.297Z,-2.29
2022-12-11T00:58:12.325Z,-2.28
2022-12-11T00:59:12.352Z,-2.25
2022-12-11T01:00:12.393Z,-2.25
2022-12-11T01:01:12.528Z,-2.23
2022-12-11T01:02:12.458Z,-2.23
2022-12-11T01:03:12.542Z,-2.24
2022-12-11T01:04:12.514Z,-2.24
2022-12-11T01:05:12.935Z,-2.23
2022-12-11T01:06:12.596Z,-2.23
2022-12-11T01:07:12.611Z,-2.23
2022-12-11T01:08:12.723Z,-2.24
2022-12-11T01:09:12.682Z,-2.24
2022-12-11T01:10:12.785Z,-2.24
2022-12-11T01:11:12.753Z,-2.24
2022-12-11T01:12:12.804Z,-2.24
2022-12-11T01:13:12.809Z,-2.22
2022-12-11T01:14:12.836Z,-2.24
2022-12-11T01:15:13.229Z,-2.24
2022-12-11T01:16:13.010Z,-2.24
2022-12-11T01:17:12.942Z,-2.22
2022-12-11T01:18:12.962Z,-2.22
2022-12-11T01:19:12.991Z,-2.22
2022-12-11T01:20:13.018Z,-2.21
2022-12-11T01:21:13.060Z,-2.21
2022-12-11T01:22:13.095Z,-2.21
2022-12-11T01:23:13.187Z,-2.22
2022-12-11T01:24:13.150Z,-2.21
2022-12-11T01:25:13.271Z,-2.21
2022-12-11T01:26:13.223Z,-2.22
2022-12-11T01:27:13.249Z,-2.2
2022-12-11T01:28:13.269Z,-2.23
2022-12-11T01:29:13.308Z,-2.23
2022-12-11T01:30:13.343Z,-2.22
2022-12-11T01:31:13.421Z,-2.22
2022-12-11T01:32:13.411Z,-2.22
2022-12-11T01:33:13.440Z,-2.23
2022-12-11T01:34:13.463Z,-2.24
2022-12-11T01:35:13.618Z,-2.22
2022-12-11T01:36:13.515Z,-2.21
2022-12-11T01:37:13.545Z,-2.22
2022-12-11T01:38:13.577Z,-2.24
2022-12-11T01:39:13.615Z,-2.23
2022-12-11T01:40:13.645Z,-2.23
2022-12-11T01:41:13.679Z,-2.23
2022-12-11T01:42:13.711Z,-2.23
2022-12-11T01:43:13.740Z,-2.24
2022-12-11T01:44:13.781Z,-2.23
2022-12-11T01:45:13.808Z,-2.18
2022-12-11T01:46:13.899Z,-2.23
2022-12-11T01:47:13.874Z,-2.23
2022-12-11T01:48:13.908Z,-2.19
2022-12-11T01:49:13.950Z,-2.19
2022-12-11T01:50:13.959Z,-2.15
2022-12-11T01:51:13.998Z,-2.15
2022-12-11T01:52:14.035Z,-2.13
2022-12-11T01:53:14.070Z,-2.15
2022-12-11T01:54:14.092Z,-2.14
2022-12-11T01:55:14.120Z,-2.14
2022-12-11T01:56:14.146Z,-2.13
2022-12-11T01:57:14.184Z,-2.14
2022-12-11T01:58:14.209Z,-2.11
2022-12-11T01:59:14.246Z,-2.1
2022-12-11T02:00:14.268Z,-2.11
2022-12-11T02:01:14.318Z,-2.12
2022-12-11T02:02:14.344Z,-2.14
2022-12-11T02:03:14.353Z,-2.13
2022-12-11T02:04:14.396Z,-2.11
2022-12-11T02:05:14.419Z,-2.11
2022-12-11T02:06:14.452Z,-2.11
2022-12-11T02:07:14.481Z,-2.11
2022-12-11T02:08:14.519Z,-2.16
2022-12-11T02:09:14.559Z,-2.16
2022-12-11T02:10:14.577Z,-2.16
2022-12-11T02:11:14.615Z,-2.16
2022-12-11T02:12:14.644Z,-2.16
2022-12-11T02:13:14.686Z,-2.16
2022-12-11T02:14:14.715Z,-2.15
2022-12-11T02:15:14.755Z,-2.16
2022-12-11T02:16:14.830Z,-2.16
2022-12-11T02:17:14.805Z,-2.17
2022-12-11T02:18:14.836Z,-2.17
2022-12-11T02:19:14.867Z,-2.18
2022-12-11T02:20:14.916Z,-2.17
2022-12-11T02:21:14.932Z,-2.15
2022-12-11T02:22:14.966Z,-2.14
2022-12-11T02:23:14.993Z,-2.14
2022-12-11T02:24:15.034Z,-2.14
2022-12-11T02:25:15.072Z,-2.14
2022-12-11T02:26:15.080Z,-2.13
2022-12-11T02:27:15.120Z,-2.14
2022-12-11T02:28:15.160Z,-2.14
2022-12-11T02:29:15.177Z,-2.15
2022-12-11T02:30:15.230Z,-2.14
2022-12-11T02:31:15.267Z,-2.15
2022-12-11T02:32:15.276Z,-2.15
2022-12-11T02:33:15.304Z,-2.15
2022-12-11T02:34:15.353Z,-2.15
2022-12-11T02:35:15.373Z,-2.15
2022-12-11T02:36:15.403Z,-2.16
2022-12-11T02:37:15.440Z,-2.17
2022-12-11T02:38:15.466Z,-2.17
2022-12-11T02:39:15.504Z,-2.17
2022-12-11T02:40:15.543Z,-2.17
2022-12-11T02:41:15.572Z,-2.17
2022-12-11T02:42:15.612Z,-2.17
2022-12-11T02:43:15.641Z,-2.17
2022-12-11T02:44:15.678Z,-2.17
2022-12-11T02:45:15.703Z,-2.17
2022-12-11T02:46:15.796Z,-2.17
2022-12-11T02:47:15.766Z,-2.18
2022-12-11T02:48:15.792Z,-2.18
2022-12-11T02:49:15.822Z,-2.18
2022-12-11T02:50:15.850Z,-2.17
2022-12-11T02:51:15.903Z,-2.18
2022-12-11T02:52:15.927Z,-2.19
2022-12-11T02:53:15.958Z,-2.19
2022-12-11T02:54:15.976Z,-2.19
2022-12-11T02:55:16.013Z,-2.19
2022-12-11T02:56:16.082Z,-2.19
2022-12-11T02:57:16.085Z,-2.17
2022-12-11T02:58:16.111Z,-2.17
2022-12-11T02:59:16.141Z,-2.17
2022-12-11T03:00:16.182Z,-2.16
2022-12-11T03:01:16.243Z,-2.17
2022-12-11T03:02:16.305Z,-2.17
2022-12-11T03:03:16.286Z,-2.17
2022-12-11T03:04:16.329Z,-2.17
2022-12-11T03:05:16.362Z,-2.2
2022-12-11T03:06:16.397Z,-2.2
2022-12-11T03:07:16.421Z,-2.19
2022-12-11T03:08:16.478Z,-2.19
2022-12-11T03:09:16.488Z,-2.2
2022-12-11T03:10:16.513Z,-2.2
2022-12-11T03:11:16.543Z,-2.2
2022-12-11T03:12:16.560Z,-2.2
2022-12-11T03:13:16.593Z,-2.2
2022-12-11T03:14:16.629Z,-2.21
2022-12-11T03:15:16.657Z,-2.21
2022-12-11T03:16:16.726Z,-2.19
2022-12-11T03:17:16.718Z,-2.21
2022-12-11T03:18:16.755Z,-2.21
2022-12-11T03:19:16.792Z,-2.21
2022-12-11T03:20:16.811Z,-2.21
2022-12-11T03:21:16.843Z,-2.21
2022-12-11T03:22:16.880Z,-2.2
2022-12-11T03:23:16.908Z,-2.2
2022-12-11T03:24:16.941Z,-2.2
2022-12-11T03:25:16.975Z,-2.2
2022-12-11T03:26:17.015Z,-2.19
2022-12-11T03:27:17.061Z,-2.19
2022-12-11T03:28:17.067Z,-2.19
2022-12-11T03:29:17.098Z,-2.2
2022-12-11T03:30:17.121Z,-2.22
2022-12-11T03:31:17.197Z,-2.22
2022-12-11T03:32:17.164Z,-2.27
2022-12-11T03:33:17.190Z,-2.26
2022-12-11T03:34:17.226Z,-2.26
2022-12-11T03:35:17.249Z,-2.25
2022-12-11T03:36:17.275Z,-2.25
2022-12-11T03:37:17.324Z,-2.22
2022-12-11T03:38:17.340Z,-2.22
2022-12-11T03:39:17.378Z,-2.23
2022-12-11T03:40:17.405Z,-2.22
2022-12-11T03:41:17.440Z,-2.23
2022-12-11T03:42:17.460Z,-2.23
2022-12-11T03:43:17.499Z,-2.25
2022-12-11T03:44:17.527Z,-2.25
2022-12-11T03:45:17.557Z,-2.24
2022-12-11T03:46:17.668Z,-2.24
2022-12-11T03:47:17.638Z,-2.25
2022-12-11T03:48:17.668Z,-2.25
2022-12-11T03:49:17.700Z,-2.22
2022-12-11T03:50:17.720Z,-2.22
2022-12-11T03:51:17.758Z,-2.22
2022-12-11T03:52:17.803Z,-2.22
2022-12-11T03:53:17.827Z,-2.21
2022-12-11T03:54:17.861Z,-2.22
2022-12-11T03:55:17.881Z,-2.24
2022-12-11T03:56:17.918Z,-2.24
2022-12-11T03:57:17.942Z,-2.23
2022-12-11T03:58:17.975Z,-2.22
2022-12-11T03:59:18.014Z,-2.22
2022-12-11T04:00:18.045Z,-2.21
2022-12-11T04:01:18.082Z,-2.2
2022-12-11T04:02:18.104Z,-2.2
2022-12-11T04:03:18.135Z,-2.2
2022-12-11T04:04:18.208Z,-2.19
2022-12-11T04:05:18.204Z,-2.2
2022-12-11T04:06:18.263Z,-2.19
2022-12-11T04:07:18.273Z,-2.21
2022-12-11T04:08:18.409Z,-2.19
2022-12-11T04:09:18.325Z,-2.19
2022-12-11T04:10:18.357Z,-2.19
2022-12-11T04:11:18.397Z,-2.2
2022-12-11T04:12:18.427Z,-2.2
2022-12-11T04:13:18.451Z,-2.19
2022-12-11T04:14:18.489Z,-2.19
2022-12-11T04:15:18.518Z,-2.21
2022-12-11T04:16:18.589Z,-2.19
2022-12-11T04:17:18.589Z,-2.18
2022-12-11T04:18:18.617Z,-2.21
2022-12-11T04:19:18.650Z,-2.18
2022-12-11T04:20:18.720Z,-2.19
2022-12-11T04:21:18.717Z,-2.21
2022-12-11T04:22:18.750Z,-2.2
2022-12-11T04:23:18.789Z,-2.2
2022-12-11T04:24:18.817Z,-2.19
2022-12-11T04:25:18.848Z,-2.18
2022-12-11T04:26:18.883Z,-2.18
2022-12-11T04:27:18.913Z,-2.17
2022-12-11T04:28:18.946Z,-2.18
2022-12-11T04:29:18.974Z,-2.18
2022-12-11T04:30:19.020Z,-2.18
2022-12-11T04:31:19.092Z,-2.18
2022-12-11T04:32:19.070Z,-2.18
2022-12-11T04:33:19.095Z,-2.16
2022-12-11T04:34:19.133Z,-2.16
2022-12-11T04:35:19.165Z,-2.16
2022-12-11T04:36:19.197Z,-2.17
2022-12-11T04:37:19.218Z,-2.17
2022-12-11T04:38:19.251Z,-2.16
2022-12-11T04:39:19.288Z,-2.16
2022-12-11T04:40:19.315Z,-2.18
2022-12-11T04:41:19.351Z,-2.17
2022-12-11T04:42:19.369Z,-2.16
2022-12-11T04:43:19.411Z,-2.16
2022-12-11T04:44:19.447Z,-2.16
2022-12-11T04:45:19.480Z,-2.16
2022-12-11T04:46:19.614Z,-2.14
2022-12-11T04:47:19.535Z,-2.1
2022-12-11T04:48:19.583Z,-2.1
2022-12-11T04:49:19.621Z,-2.1
2022-12-11T04:50:19.651Z,-2.08
2022-12-11T04:51:19.681Z,-2.09
2022-12-11T04:52:19.710Z,-2.09
2022-12-11T04:53:19.747Z,-2.09
2022-12-11T04:54:19.784Z,-2.11
2022-12-11T04:55:19.806Z,-2.11
2022-12-11T04:56:19.832Z,-2.11
2022-12-11T04:57:19.871Z,-2.11
2022-12-11T04:58:19.909Z,-2.13
2022-12-11T04:59:19.938Z,-2.1
2022-12-11T05:00:19.968Z,-2.1
2022-12-11T05:01:20.068Z,-2.1
2022-12-11T05:02:20.053Z,-2.1
2022-12-11T05:03:20.041Z,-2.1
2022-12-11T05:04:20.078Z,-2.09
2022-12-11T05:05:20.117Z,-2.09
2022-12-11T05:06:20.147Z,-2.09
2022-12-11T05:07:20.197Z,-2.09
2022-12-11T05:08:20.242Z,-2.09
2022-12-11T05:09:20.248Z,-2.08
2022-12-11T05:10:20.281Z,-2.1
2022-12-11T05:11:20.313Z,-2.1
2022-12-11T05:12:20.334Z,-2.08
2022-12-11T05:13:20.368Z,-2.08
2022-12-11T05:14:20.392Z,-2.13
2022-12-11T05:15:20.438Z,-2.13
2022-12-11T05:16:20.505Z,-2.13
2022-12-11T05:17:20.516Z,-2.13
2022-12-11T05:18:20.526Z,-2.13
2022-12-11T05:19:20.557Z,-2.12
2022-12-11T05:20:20.581Z,-2.12
2022-12-11T05:21:20.621Z,-2.12
2022-12-11T05:22:20.653Z,-2.12
2022-12-11T05:23:20.679Z,-2.13
2022-12-11T05:24:20.703Z,-2.13
2022-12-11T05:25:20.741Z,-2.13
2022-12-11T05:26:20.768Z,-2.13
2022-12-11T05:27:20.798Z,-2.13
2022-12-11T05:28:20.826Z,-2.13
2022-12-11T05:29:20.865Z,-2.12
2022-12-11T05:30:20.890Z,-2.12
2022-12-11T05:31:20.950Z,-2.12
2022-12-11T05:32:20.949Z,-2.13
2022-12-11T05:33:21.011Z,-2.13
2022-12-11T05:34:21.016Z,-2.12
2022-12-11T05:35:21.045Z,-2.12
2022-12-11T05:36:21.084Z,-2.12
2022-12-11T05:37:21.116Z,-2.13
2022-12-11T05:38:21.168Z,-2.11
2022-12-11T05:39:21.193Z,-2.12
2022-12-11T05:40:21.231Z,-2.12
2022-12-11T05:41:21.256Z,-2.12
2022-12-11T05:42:25.517Z,-2.14
2022-12-11T05:43:21.304Z,-2.15
2022-12-11T05:44:21.340Z,-2.14
2022-12-11T05:45:21.373Z,-2.14
2022-12-11T05:46:21.463Z,-2.13
2022-12-11T05:47:21.438Z,-2.13
2022-12-11T05:48:21.473Z,-2.14
2022-12-11T05:49:24.701Z,-2.13
2022-12-11T05:50:21.550Z,-2.13
2022-12-11T05:51:21.585Z,-2.11
2022-12-11T05:52:21.617Z,-2.12
2022-12-11T05:53:21.638Z,-2.14
2022-12-11T05:54:21.668Z,-2.14
2022-12-11T05:55:21.705Z,-2.1
2022-12-11T05:56:21.742Z,-2.08
2022-12-11T05:57:21.764Z,-2.06
2022-12-11T05:58:21.801Z,-2.08
2022-12-11T05:59:21.829Z,-2.09
2022-12-11T06:00:21.867Z,-2.09
2022-12-11T06:01:21.886Z,-2.09
2022-12-11T06:02:22.040Z,-2.09
2022-12-11T06:03:21.969Z,-2.09
2022-12-11T06:04:21.980Z,-2.08
2022-12-11T06:05:22.010Z,-2.08
2022-12-11T06:06:22.044Z,-2.08
2022-12-11T06:07:22.073Z,-2.08
2022-12-11T06:08:22.155Z,-2.09
2022-12-11T06:09:22.126Z,-2.08
2022-12-11T06:10:22.163Z,-2.09
2022-12-11T06:11:24.192Z,-2.1
2022-12-11T06:12:22.217Z,-2.1
2022-12-11T06:13:22.296Z,-2.11
2022-12-11T06:14:22.278Z,-2.1
2022-12-11T06:15:22.313Z,-2.09
2022-12-11T06:16:22.458Z,-2.13
2022-12-11T06:17:22.394Z,-2.14
2022-12-11T06:18:22.418Z,-2.14
2022-12-11T06:19:22.439Z,-2.14
2022-12-11T06:20:22.462Z,-2.15
2022-12-11T06:21:22.480Z,-2.18
2022-12-11T06:22:22.513Z,-2.21
2022-12-11T06:23:22.545Z,-2.21
2022-12-11T06:24:22.574Z,-2.21
2022-12-11T06:25:22.607Z,-2.2
2022-12-11T06:26:22.641Z,-2.19
2022-12-11T06:27:22.666Z,-2.18
2022-12-11T06:28:22.699Z,-2.19
2022-12-11T06:29:22.721Z,-2.22
2022-12-11T06:30:22.751Z,-2.18
2022-12-11T06:31:22.841Z,-2.17
2022-12-11T06:32:22.825Z,-2.16
2022-12-11T06:33:22.856Z,-2.15
2022-12-11T06:34:22.901Z,-2.15
2022-12-11T06:35:22.920Z,-2.14
2022-12-11T06:36:22.952Z,-2.15
2022-12-11T06:37:22.976Z,-2.14
2022-12-11T06:38:22.999Z,-2.14
2022-12-11T06:39:23.073Z,-2.13
2022-12-11T06:40:23.064Z,-2.13
2022-12-11T06:41:23.100Z,-2.12
2022-12-11T06:42:23.132Z,-2.12
2022-12-11T06:43:23.165Z,-2.12
2022-12-11T06:44:23.214Z,-2.12
2022-12-11T06:45:23.240Z,-2.12
2022-12-11T06:46:23.359Z,-2.13
2022-12-11T06:47:23.302Z,-2.12
2022-12-11T06:48:23.358Z,-2.12
2022-12-11T06:49:23.387Z,-2.12
2022-12-11T06:50:23.391Z,-2.11
2022-12-11T06:51:23.429Z,-2.11
2022-12-11T06:52:23.460Z,-2.11
2022-12-11T06:53:23.475Z,-2.11
2022-12-11T06:54:23.506Z,-2.11
2022-12-11T06:55:23.540Z,-2.11
2022-12-11T06:56:23.569Z,-2.1
2022-12-11T06:57:23.594Z,-2.11
2022-12-11T06:58:23.626Z,-2.11
2022-12-11T06:59:23.663Z,-2.11
2022-12-11T07:00:23.691Z,-2.11
2022-12-11T07:01:23.908Z,-2.1
2022-12-11T07:02:23.779Z,-2.1
2022-12-11T07:03:23.778Z,-2.1
2022-12-11T07:04:23.818Z,-2.1
2022-12-11T07:05:23.848Z,-2.1
2022-12-11T07:06:23.877Z,-2.02
2022-12-11T07:07:23.909Z,-2.03
2022-12-11T07:08:24.032Z,-2.06
2022-12-11T07:09:23.974Z,-2.05
2022-12-11T07:10:23.995Z,-2.04
2022-12-11T07:11:24.034Z,-2.04
2022-12-11T07:12:24.060Z,-2.04
2022-12-11T07:13:24.108Z,-2.03
2022-12-11T07:14:24.127Z,-2.05
2022-12-11T07:15:24.167Z,-2
2022-12-11T07:16:24.236Z,-1.99
2022-12-11T07:17:24.227Z,-2.01
2022-12-11T07:18:24.262Z,-2.01
2022-12-11T07:19:24.290Z,-2.05
2022-12-11T07:20:24.318Z,-2.07
2022-12-11T07:21:24.342Z,-2.07
2022-12-11T07:22:24.386Z,-2.05
2022-12-11T07:23:24.406Z,-2.04
2022-12-11T07:24:24.436Z,-2.09
2022-12-11T07:25:24.466Z,-2.09
2022-12-11T07:26:24.476Z,-2.05
2022-12-11T07:27:24.508Z,-2.04
2022-12-11T07:28:24.536Z,-2.03
2022-12-11T07:29:24.557Z,-2.03
2022-12-11T07:30:24.588Z,-2.04
2022-12-11T07:31:24.656Z,-2.04
2022-12-11T07:32:24.836Z,-2.05
2022-12-11T07:33:24.688Z,-2.07
2022-12-11T07:34:24.735Z,-2.06
2022-12-11T07:35:24.756Z,-2.06
2022-12-11T07:36:24.780Z,-2.07
2022-12-11T07:37:24.813Z,-2.07
2022-12-11T07:38:24.840Z,-2.08
2022-12-11T07:39:24.875Z,-2.11
2022-12-11T07:40:24.902Z,-2.12
2022-12-11T07:41:24.934Z,-2.14
2022-12-11T07:42:24.979Z,-2.17
2022-12-11T07:43:25.001Z,-2.18
2022-12-11T07:44:25.028Z,-2.25
2022-12-11T07:45:25.059Z,-2.28
2022-12-11T07:46:25.088Z,-2.28
2022-12-11T07:47:25.127Z,-2.33
2022-12-11T07:48:25.156Z,-2.35
2022-12-11T07:49:25.198Z,-2.36
2022-12-11T07:50:25.235Z,-2.36
2022-12-11T07:51:25.261Z,-2.37
2022-12-11T07:52:25.290Z,-2.39
2022-12-11T07:53:25.315Z,-2.4
2022-12-11T07:54:25.348Z,-2.41
2022-12-11T07:55:25.376Z,-2.41
2022-12-11T07:56:25.410Z,-2.4
2022-12-11T07:57:25.438Z,-2.44
2022-12-11T07:58:25.474Z,-2.45
2022-12-11T07:59:25.510Z,-2.45
2022-12-11T08:00:25.555Z,-2.45
2022-12-11T08:01:25.612Z,-2.47
2022-12-11T08:02:25.685Z,-2.46
2022-12-11T08:03:25.649Z,-2.45
2022-12-11T08:04:25.672Z,-2.47
2022-12-11T08:05:25.695Z,-2.47
2022-12-11T08:06:25.735Z,-2.46
2022-12-11T08:07:25.754Z,-2.47
2022-12-11T08:08:25.905Z,-2.46
2022-12-11T08:09:25.811Z,-2.46
2022-12-11T08:10:25.967Z,-2.47
2022-12-11T08:11:25.891Z,-2.49
2022-12-11T08:12:25.931Z,-2.49
2022-12-11T08:13:25.966Z,-2.48
2022-12-11T08:14:25.989Z,-2.48
2022-12-11T08:15:26.009Z,-2.48
2022-12-11T08:16:26.121Z,-2.5
2022-12-11T08:17:30.064Z,-2.5
2022-12-11T08:18:26.135Z,-2.49
2022-12-11T08:19:26.148Z,-2.5
2022-12-11T08:20:26.170Z,-2.49
2022-12-11T08:21:26.208Z,-2.47
2022-12-11T08:22:26.237Z,-2.48
2022-12-11T08:23:26.260Z,-2.52
2022-12-11T08:24:26.275Z,-2.52
2022-12-11T08:25:26.311Z,-2.52
2022-12-11T08:26:26.339Z,-2.53
2022-12-11T08:27:26.366Z,-2.53
2022-12-11T08:28:27.360Z,-2.52
2022-12-11T08:29:26.426Z,-2.5
2022-12-11T08:30:26.457Z,-2.48
2022-12-11T08:31:26.487Z,-2.49
2022-12-11T08:32:26.528Z,-2.47
2022-12-11T08:33:26.557Z,-2.48
2022-12-11T08:34:26.581Z,-2.4
2022-12-11T08:35:26.616Z,-2.37
2022-12-11T08:36:26.637Z,-2.39
2022-12-11T08:37:26.680Z,-2.41
2022-12-11T08:38:26.709Z,-2.43
2022-12-11T08:39:26.759Z,-2.4
2022-12-11T08:40:26.760Z,-2.4
2022-12-11T08:41:26.808Z,-2.39
2022-12-11T08:42:26.815Z,-2.4
2022-12-11T08:43:26.846Z,-2.44
2022-12-11T08:44:26.938Z,-2.42
2022-12-11T08:45:26.910Z,-2.44
2022-12-11T08:46:27.025Z,-2.44
2022-12-11T08:47:26.970Z,-2.46
2022-12-11T08:48:27.008Z,-2.46
2022-12-11T08:49:32.688Z,-2.46
2022-12-11T08:50:27.062Z,-2.45
2022-12-11T08:51:27.083Z,-2.47
2022-12-11T08:52:27.125Z,-2.49
2022-12-11T08:53:27.158Z,-2.5
2022-12-11T08:54:27.189Z,-2.49
2022-12-11T08:55:27.223Z,-2.49
2022-12-11T08:56:27.244Z,-2.48
2022-12-11T08:57:27.284Z,-2.51
2022-12-11T08:58:27.321Z,-2.52
2022-12-11T08:59:27.340Z,-2.52
2022-12-11T09:00:27.370Z,-2.53
2022-12-11T09:01:27.467Z,-2.53
2022-12-11T09:02:27.487Z,-2.5
2022-12-11T09:03:27.469Z,-2.51
2022-12-11T09:04:27.486Z,-2.51
2022-12-11T09:05:27.510Z,-2.55
2022-12-11T09:06:27.540Z,-2.55
2022-12-11T09:07:27.577Z,-2.54
2022-12-11T09:08:27.678Z,-2.53
2022-12-11T09:09:27.643Z,-2.51
2022-12-11T09:10:27.669Z,-2.5
2022-12-11T09:11:27.701Z,-2.5
2022-12-11T09:12:27.723Z,-2.5
2022-12-11T09:13:27.752Z,-2.52
2022-12-11T09:14:27.790Z,-2.52
2022-12-11T09:15:27.807Z,-2.49
2022-12-11T09:16:27.828Z,-2.48
2022-12-11T09:17:27.856Z,-2.49
2022-12-11T09:18:27.893Z,-2.51
2022-12-11T09:19:32.077Z,-2.51
2022-12-11T09:20:27.952Z,-2.51
2022-12-11T09:21:27.984Z,-2.51
2022-12-11T09:22:28.017Z,-2.52
2022-12-11T09:23:28.034Z,-2.49
2022-12-11T09:24:28.085Z,-2.51
2022-12-11T09:25:28.100Z,-2.51
2022-12-11T09:26:28.123Z,-2.47
2022-12-11T09:27:28.141Z,-2.47
2022-12-11T09:28:28.195Z,-2.44
2022-12-11T09:29:28.203Z,-2.45
2022-12-11T09:30:28.245Z,-2.44
2022-12-11T09:31:28.274Z,-2.37
2022-12-11T09:32:28.312Z,-2.36
2022-12-11T09:33:28.373Z,-2.34
2022-12-11T09:34:29.588Z,-2.35
2022-12-11T09:35:28.392Z,-2.36
2022-12-11T09:36:28.415Z,-2.38
2022-12-11T09:37:28.447Z,-2.39
2022-12-11T09:38:28.496Z,-2.38
2022-12-11T09:39:28.504Z,-2.37
2022-12-11T09:40:28.547Z,-2.37
2022-12-11T09:41:28.563Z,-2.34
2022-12-11T09:42:28.608Z,-2.36
2022-12-11T09:43:28.634Z,-2.36
2022-12-11T09:44:28.672Z,-2.32
2022-12-11T09:45:28.699Z,-2.31
2022-12-11T09:46:32.223Z,-2.3
2022-12-11T09:47:28.766Z,-2.3
2022-12-11T09:48:28.794Z,-2.3
2022-12-11T09:49:28.821Z,-2.3
2022-12-11T09:50:28.860Z,-2.3
2022-12-11T09:51:28.884Z,-2.3
2022-12-11T09:52:28.913Z,-2.29
2022-12-11T09:53:33.939Z,-2.29
2022-12-11T09:54:28.973Z,-2.28
2022-12-11T09:55:29.013Z,-2.29
2022-12-11T09:56:29.053Z,-2.3
2022-12-11T09:57:29.083Z,-2.29
2022-12-11T09:58:29.112Z,-2.3
2022-12-11T09:59:29.142Z,-2.31
2022-12-11T10:00:29.179Z,-2.31
2022-12-11T10:01:29.276Z,-2.3
2022-12-11T10:02:29.274Z,-2.32
2022-12-11T10:03:29.275Z,-2.33
2022-12-11T10:04:29.310Z,-2.35
2022-12-11T10:05:29.339Z,-2.33
2022-12-11T10:06:29.381Z,-2.34
2022-12-11T10:07:29.413Z,-2.35
2022-12-11T10:08:29.487Z,-2.34
2022-12-11T10:09:29.481Z,-2.34
2022-12-11T10:10:29.515Z,-2.34
2022-12-11T10:11:29.546Z,-2.38
2022-12-11T10:12:29.581Z,-2.33
2022-12-11T10:13:29.608Z,-2.33
2022-12-11T10:14:29.681Z,-2.33
2022-12-11T10:15:29.735Z,-2.34
2022-12-11T10:16:29.709Z,-2.32
2022-12-11T10:17:29.737Z,-2.34
2022-12-11T10:18:29.773Z,-2.3
2022-12-11T10:19:29.804Z,-2.31
2022-12-11T10:20:29.839Z,-2.32
2022-12-11T10:21:29.859Z,-2.35
2022-12-11T10:22:29.894Z,-2.35
2022-12-11T10:23:29.978Z,-2.34
2022-12-11T10:25:07.645Z,-2.33
2022-12-11T10:25:30.132Z,-2.34
2022-12-11T10:26:30.020Z,-2.33
2022-12-11T10:27:30.040Z,-2.34
2022-12-11T10:28:30.086Z,-2.33
2022-12-11T10:29:30.107Z,-2.34
2022-12-11T10:30:34.327Z,-2.35
2022-12-11T10:31:30.241Z,-2.38
2022-12-11T10:32:30.196Z,-2.38
2022-12-11T10:33:30.218Z,-2.36
2022-12-11T10:34:30.258Z,-2.35
2022-12-11T10:35:30.282Z,-2.3
2022-12-11T10:36:30.309Z,-2.3
2022-12-11T10:37:30.343Z,-2.32
2022-12-11T10:38:30.378Z,-2.29
2022-12-11T10:39:30.409Z,-2.3
2022-12-11T10:40:30.427Z,-2.29
2022-12-11T10:41:30.471Z,-2.27
2022-12-11T10:42:30.502Z,-2.28
2022-12-11T10:43:30.553Z,-2.27
2022-12-11T10:44:30.597Z,-2.27
2022-12-11T10:45:30.603Z,-2.28
2022-12-11T10:46:30.709Z,-2.28
2022-12-11T10:47:30.668Z,-2.27
2022-12-11T10:48:30.694Z,-2.24
2022-12-11T10:49:30.758Z,-2.25
2022-12-11T10:50:30.757Z,-2.27
2022-12-11T10:51:30.786Z,-2.27
2022-12-11T10:52:30.816Z,-2.26
2022-12-11T10:53:30.845Z,-2.27
2022-12-11T10:54:30.887Z,-2.26
2022-12-11T10:55:30.894Z,-2.26
2022-12-11T10:56:30.927Z,-2.25
2022-12-11T10:57:30.936Z,-2.24
2022-12-11T10:58:30.971Z,-2.22
2022-12-11T10:59:31.002Z,-2.22
2022-12-11T11:00:31.019Z,-2.21
2022-12-11T11:01:31.094Z,-2.19
2022-12-11T11:02:31.180Z,-2.18
2022-12-11T11:03:31.114Z,-2.17
2022-12-11T11:04:31.139Z,-2.21
2022-12-11T11:05:31.177Z,-2.2
2022-12-11T11:06:31.207Z,-2.22
2022-12-11T11:07:31.239Z,-2.22
2022-12-11T11:08:31.293Z,-2.21
2022-12-11T11:09:31.291Z,-2.19
2022-12-11T11:10:31.336Z,-2.13
2022-12-11T11:11:31.356Z,-2.12
2022-12-11T11:12:31.383Z,-2.12
2022-12-11T11:13:31.462Z,-2.11
2022-12-11T11:14:31.456Z,-2.11
2022-12-11T11:15:31.493Z,-2.11
2022-12-11T11:16:31.551Z,-2.11
2022-12-11T11:17:34.611Z,-2.1
2022-12-11T11:18:31.598Z,-2.1
2022-12-11T11:19:31.617Z,-2.1
2022-12-11T11:20:31.642Z,-2.15
2022-12-11T11:21:31.677Z,-2.14
2022-12-11T11:22:31.714Z,-2.09
2022-12-11T11:23:31.736Z,-2.08
2022-12-11T11:24:31.769Z,-2.08
2022-12-11T11:25:31.794Z,-2.1
2022-12-11T11:27:04.317Z,-2.07
2022-12-11T11:27:31.857Z,-2.07
2022-12-11T11:28:31.880Z,-2.05
2022-12-11T11:29:31.913Z,-2.02
2022-12-11T11:30:31.943Z,-2.01
2022-12-11T11:31:32.059Z,-1.95
2022-12-11T11:32:32.010Z,-1.97
2022-12-11T11:33:32.047Z,-1.93
2022-12-11T11:34:32.079Z,-1.94
2022-12-11T11:35:32.119Z,-1.94
2022-12-11T11:36:32.149Z,-1.85
2022-12-11T11:37:32.178Z,-1.82
2022-12-11T11:38:32.197Z,-1.82
2022-12-11T11:39:32.233Z,-1.83
2022-12-11T11:40:32.272Z,-1.83
2022-12-11T11:41:32.308Z,-1.83
2022-12-11T11:42:32.345Z,-1.85
2022-12-11T11:43:32.401Z,-1.86
2022-12-11T11:44:32.405Z,-1.86
2022-12-11T11:45:32.433Z,-1.86
2022-12-11T11:46:32.534Z,-1.86
2022-12-11T11:47:32.498Z,-1.85
2022-12-11T11:48:32.548Z,-1.85
2022-12-11T11:49:32.558Z,-1.86
2022-12-11T11:50:32.584Z,-1.86
2022-12-11T11:51:32.630Z,-1.86
2022-12-11T11:52:32.665Z,-1.87
2022-12-11T11:53:32.691Z,-1.87
2022-12-11T11:54:32.726Z,-1.86
2022-12-11T11:55:32.750Z,-1.87
2022-12-11T11:56:32.785Z,-1.85
2022-12-11T11:57:32.831Z,-1.84
2022-12-11T11:58:32.860Z,-1.83
2022-12-11T11:59:32.896Z,-1.83
2022-12-11T12:00:34.127Z,-1.79
2022-12-11T12:01:32.955Z,-1.76
2022-12-11T12:02:33.092Z,-1.76
2022-12-11T12:03:33.050Z,-1.76
2022-12-11T12:04:33.061Z,-1.74
2022-12-11T12:05:33.099Z,-1.75
2022-12-11T12:06:33.126Z,-1.75
2022-12-11T12:07:33.163Z,-1.75
2022-12-11T12:08:33.203Z,-1.74
2022-12-11T12:09:33.329Z,-1.75
2022-12-11T12:10:33.276Z,-1.76
2022-12-11T12:11:33.299Z,-1.74
2022-12-11T12:12:34.304Z,-1.74
2022-12-11T12:13:49.079Z,-1.77
2022-12-11T12:14:51.724Z,-1.77
2022-12-11T12:15:33.426Z,-1.75
2022-12-11T12:16:52.191Z,-1.75
2022-12-11T12:17:33.531Z,-1.74
2022-12-11T12:18:33.545Z,-1.77
2022-12-11T12:19:33.564Z,-1.77
2022-12-11T12:20:33.589Z,-1.78
2022-12-11T12:21:33.620Z,-1.79
2022-12-11T12:22:33.645Z,-1.78
2022-12-11T12:23:36.690Z,-1.76
2022-12-11T12:24:33.705Z,-1.76
2022-12-11T12:25:33.736Z,-1.7
2022-12-11T12:26:33.763Z,-1.68
2022-12-11T12:27:52.178Z,-1.68
2022-12-11T12:28:33.831Z,-1.67
2022-12-11T12:29:33.860Z,-1.66
2022-12-11T12:30:33.885Z,-1.66
2022-12-11T12:31:33.998Z,-1.66
2022-12-11T12:32:33.948Z,-1.67
2022-12-11T12:33:34.016Z,-1.66
2022-12-11T12:34:34.004Z,-1.67
2022-12-11T12:35:34.029Z,-1.67
2022-12-11T12:36:34.076Z,-1.67
2022-12-11T12:37:34.105Z,-1.65
2022-12-11T12:38:34.139Z,-1.66
2022-12-11T12:39:34.166Z,-1.67
2022-12-11T12:40:34.198Z,-1.67
2022-12-11T12:41:34.233Z,-1.68
2022-12-11T12:42:34.256Z,-1.68
2022-12-11T12:43:34.354Z,-1.68
2022-12-11T12:44:34.306Z,-1.68
2022-12-11T12:45:34.380Z,-1.67
2022-12-11T12:46:34.368Z,-1.63
2022-12-11T12:47:34.417Z,-1.64
2022-12-11T12:48:34.453Z,-1.64
2022-12-11T12:49:34.474Z,-1.64
2022-12-11T12:50:34.510Z,-1.64
2022-12-11T12:51:34.536Z,-1.66
2022-12-11T12:52:34.578Z,-1.66
2022-12-11T12:53:34.599Z,-1.65
2022-12-11T12:54:34.643Z,-1.67
2022-12-11T12:55:34.670Z,-1.65